createdAt,value
2023-04-09T00:02:15.635Z,101015.97
2023-04-09T00:07:17.162Z,101010.94
2023-04-09T00:12:18.715Z,101010.09
2023-04-09T00:17:20.318Z,101007.56
2023-04-09T00:22:21.875Z,101004.00
2023-04-09T00:27:23.432Z,100996.59
2023-04-09T00:32:24.979Z,100998.88
2023-04-09T00:37:26.512Z,101000.31
2023-04-09T00:42:32.188Z,101003.22
2023-04-09T00:47:34.975Z,101015.97
2023-04-09T00:52:36.661Z,101007.78
2023-04-09T00:57:38.234Z,101006.94
2023-04-09T01:02:41.327Z,101005.72
2023-04-09T01:08:04.410Z,101007.72
2023-04-09T01:13:16.167Z,101009.78
2023-04-09T01:18:29.444Z,101011.69
2023-04-09T01:23:54.703Z,101010.75
2023-04-09T01:28:57.698Z,101011.16
2023-04-09T01:34:00.664Z,101004.41
2023-04-09T01:39:03.196Z,100998.66
2023-04-09T01:44:06.292Z,101010.53
2023-04-09T01:49:09.353Z,101009.88
2023-04-09T01:54:10.995Z,101002.88
2023-04-09T01:59:13.343Z,101002.66
2023-04-09T02:04:21.691Z,101003.72
2023-04-09T02:09:24.549Z,101008.34
2023-04-09T02:14:28.401Z,100997.63
2023-04-09T02:19:44.593Z,101005.78
2023-04-09T02:24:46.921Z,100998.00
2023-04-09T02:29:48.503Z,101002.13
2023-04-09T02:34:50.213Z,100991.63
2023-04-09T02:39:51.719Z,100992.84
2023-04-09T02:44:53.447Z,100997.81
2023-04-09T02:49:55.006Z,100993.13
2023-04-09T02:54:56.997Z,100997.09
2023-04-09T02:59:58.516Z,100993.44
2023-04-09T03:05:00.068Z,100988.38
2023-04-09T03:10:01.579Z,100994.00
2023-04-09T03:15:04.574Z,100989.97
2023-04-09T03:20:09.480Z,100985.75
2023-04-09T03:25:13.305Z,100992.41
2023-04-09T03:30:15.208Z,100980.97
2023-04-09T03:35:19.569Z,100991.97
2023-04-09T03:40:21.652Z,100984.56
2023-04-09T03:45:23.305Z,100986.59
2023-04-09T03:50:27.221Z,100992.97
2023-04-09T03:55:31.406Z,100988.63
2023-04-09T04:00:36.739Z,101000.69
2023-04-09T04:06:11.877Z,100991.03
2023-04-09T04:11:28.164Z,100997.47
2023-04-09T04:16:30.552Z,100993.03
2023-04-09T04:21:32.336Z,100997.78
2023-04-09T04:26:36.583Z,101010.13
2023-04-09T04:31:38.520Z,101006.19
2023-04-09T04:36:40.252Z,101007.41
2023-04-09T04:41:42.868Z,101003.03
2023-04-09T04:46:49.933Z,101010.72
2023-04-09T04:51:51.493Z,101012.81
2023-04-09T04:56:53.539Z,101008.47
2023-04-09T05:02:27.516Z,101004.91
2023-04-09T05:07:49.132Z,101007.31
2023-04-09T05:12:50.981Z,101022.97
2023-04-09T05:18:02.828Z,101024.81
2023-04-09T05:23:04.885Z,101029.25
2023-04-09T05:28:12.020Z,101025.34
2023-04-09T05:33:15.367Z,101041.28
2023-04-09T05:38:17.069Z,101048.25
2023-04-09T05:43:22.554Z,101029.06
2023-04-09T05:48:24.398Z,101042.50
2023-04-09T05:53:27.645Z,101036.91
2023-04-09T05:58:29.565Z,101044.88
2023-04-09T06:03:32.829Z,101044.84
2023-04-09T06:08:34.716Z,101051.16
2023-04-09T06:13:36.288Z,101051.16
2023-04-09T06:18:37.940Z,101051.78
2023-04-09T06:23:40.283Z,101064.84
2023-04-09T06:28:42.462Z,101057.81
2023-04-09T06:33:43.998Z,101053.44
2023-04-09T06:38:45.615Z,101053.19
2023-04-09T06:43:47.159Z,101051.69
2023-04-09T06:48:48.759Z,101056.31
2023-04-09T06:53:50.491Z,101053.84
2023-04-09T06:58:52.166Z,101049.00
2023-04-09T07:03:54.046Z,101040.97
2023-04-09T07:08:56.176Z,101050.84
2023-04-09T07:13:58.217Z,101039.47
2023-04-09T07:18:59.864Z,101037.56
2023-04-09T07:24:02.093Z,101038.97
2023-04-09T07:29:04.429Z,101043.25
2023-04-09T07:34:06.319Z,101032.88
2023-04-09T07:39:07.859Z,101017.59
2023-04-09T07:44:12.219Z,101026.94
2023-04-09T07:49:13.942Z,101033.34
2023-04-09T07:54:15.523Z,101036.72
2023-04-09T07:59:17.264Z,101032.94
2023-04-09T08:04:18.989Z,101042.44
2023-04-09T08:09:21.524Z,101037.19
2023-04-09T08:14:23.115Z,101033.22
2023-04-09T08:19:24.794Z,101026.47
2023-04-09T08:24:26.632Z,101040.78
2023-04-09T08:29:28.426Z,101030.66
2023-04-09T08:34:29.954Z,101032.56
2023-04-09T08:39:31.918Z,101018.44
2023-04-09T08:44:33.551Z,101010.22
2023-04-09T08:49:35.210Z,100994.44
2023-04-09T08:54:42.109Z,100995.00
2023-04-09T08:59:43.643Z,100982.50
2023-04-09T09:04:49.458Z,100945.94
2023-04-09T09:09:54.801Z,100980.63
2023-04-09T09:14:56.390Z,100986.09
2023-04-09T09:19:59.045Z,100954.69
2023-04-09T09:25:01.029Z,100952.97
2023-04-09T09:30:05.616Z,100979.13
2023-04-09T09:35:07.702Z,100964.97
2023-04-09T09:40:09.949Z,100951.66
2023-04-09T09:45:18.267Z,100959.03
2023-04-09T09:50:25.467Z,100969.44
2023-04-09T09:55:30.906Z,100979.81
2023-04-09T10:00:33.074Z,100979.19
2023-04-09T10:05:39.057Z,100992.09
2023-04-09T10:10:44.545Z,100988.88
2023-04-09T10:15:46.826Z,100977.81
2023-04-09T10:21:01.693Z,100995.06
2023-04-09T10:26:04.318Z,100987.22
2023-04-09T10:31:07.894Z,100970.91
2023-04-09T10:36:13.362Z,100962.97
2023-04-09T10:41:21.562Z,100952.59
2023-04-09T10:46:30.611Z,100944.19
2023-04-09T10:51:36.597Z,100950.84
2023-04-09T10:56:38.174Z,100936.28
2023-04-09T11:01:39.736Z,100939.13
2023-04-09T11:06:46.193Z,100943.13
2023-04-09T11:11:53.498Z,100935.44
2023-04-09T11:16:55.636Z,100931.50
2023-04-09T11:21:57.170Z,100921.38
2023-04-09T11:27:02.111Z,100924.09
2023-04-09T11:32:07.516Z,100938.81
2023-04-09T11:37:14.519Z,100924.78
2023-04-09T11:42:16.047Z,100924.69
2023-04-09T11:47:18.169Z,100914.25
2023-04-09T11:52:19.790Z,100905.88
2023-04-09T11:57:21.400Z,100897.34
2023-04-09T12:02:23.480Z,100905.47
2023-04-09T12:07:32.493Z,100891.19
2023-04-09T12:12:45.458Z,100896.44
2023-04-09T12:17:49.416Z,100908.03
2023-04-09T12:22:51.029Z,100920.44
2023-04-09T12:27:52.750Z,100908.03
2023-04-09T12:32:55.160Z,100902.66
2023-04-09T12:37:56.771Z,100906.72
2023-04-09T12:42:58.292Z,100918.44
2023-04-09T12:47:59.938Z,100912.91
2023-04-09T12:53:01.493Z,100910.53
2023-04-09T12:58:03.072Z,100916.41
2023-04-09T13:03:04.989Z,100908.13
2023-04-09T13:08:06.779Z,100919.63
2023-04-09T13:13:12.157Z,100921.22
2023-04-09T13:18:13.798Z,100896.03
2023-04-09T13:23:15.516Z,100910.94
2023-04-09T13:28:17.070Z,100906.16
2023-04-09T13:33:18.610Z,100901.28
2023-04-09T13:38:20.246Z,100887.91
2023-04-09T13:43:21.868Z,100888.84
2023-04-09T13:48:24.307Z,100902.25
2023-04-09T13:53:26.090Z,100896.50
2023-04-09T13:58:27.614Z,100888.69
2023-04-09T14:03:29.181Z,100878.66
2023-04-09T14:08:30.899Z,100890.38
2023-04-09T14:13:32.481Z,100887.63
2023-04-09T14:18:34.198Z,100871.47
2023-04-09T14:23:35.873Z,100863.56
2023-04-09T14:28:37.988Z,100857.56
2023-04-09T14:33:40.281Z,100855.19
2023-04-09T14:38:41.803Z,100846.81
2023-04-09T14:43:43.342Z,100847.69
2023-04-09T14:48:44.849Z,100844.72
2023-04-09T14:53:46.489Z,100834.09
2023-04-09T14:58:48.039Z,100828.72
2023-04-09T15:03:49.661Z,100833.53
2023-04-09T15:08:51.521Z,100842.75
2023-04-09T15:13:53.303Z,100834.59
2023-04-09T15:18:57.631Z,100825.13
2023-04-09T15:23:59.209Z,100800.72
2023-04-09T15:29:05.385Z,100801.78
2023-04-09T15:34:07.099Z,100810.78
2023-04-09T15:39:08.618Z,100823.13
2023-04-09T15:44:10.608Z,100821.06
2023-04-09T15:49:12.151Z,100812.94
2023-04-09T15:54:13.782Z,100815.91
2023-04-09T15:59:16.398Z,100817.59
2023-04-09T16:04:18.007Z,100826.09
2023-04-09T16:09:19.546Z,100825.59
2023-04-09T16:14:21.556Z,100820.09
2023-04-09T16:19:25.032Z,100824.91
2023-04-09T16:24:27.127Z,100820.59
2023-04-09T16:29:28.886Z,100834.50
2023-04-09T16:34:31.962Z,100837.47
2023-04-09T16:39:33.511Z,100809.22
2023-04-09T16:44:35.709Z,100805.13
2023-04-09T16:49:37.361Z,100820.31
2023-04-09T16:54:38.898Z,100810.94
2023-04-09T16:59:42.503Z,100819.31
2023-04-09T17:04:44.050Z,100823.72
2023-04-09T17:09:45.673Z,100813.88
2023-04-09T17:14:47.204Z,100826.47
2023-04-09T17:19:48.931Z,100831.41
2023-04-09T17:24:50.581Z,100838.38
2023-04-09T17:29:53.718Z,100832.22
2023-04-09T17:34:55.478Z,100846.16
2023-04-09T17:39:57.093Z,100854.63
2023-04-09T17:44:59.118Z,100855.25
2023-04-09T17:50:01.547Z,100864.31
2023-04-09T17:55:14.057Z,100863.44
2023-04-09T18:00:16.120Z,100857.97
2023-04-09T18:05:21.032Z,100862.94
2023-04-09T18:10:23.395Z,100866.69
2023-04-09T18:15:24.953Z,100861.53
2023-04-09T18:20:26.576Z,100875.78
2023-04-09T18:25:28.729Z,100877.31
2023-04-09T18:30:31.171Z,100884.53
2023-04-09T18:35:32.744Z,100899.75
2023-04-09T18:40:41.286Z,100902.34
2023-04-09T18:45:42.917Z,100893.16
2023-04-09T18:50:44.452Z,100895.28
2023-04-09T18:55:46.465Z,100904.31
2023-04-09T19:00:51.470Z,100912.81
2023-04-09T19:05:53.131Z,100917.09
2023-04-09T19:10:55.592Z,100923.47
2023-04-09T19:15:57.194Z,100928.69
2023-04-09T19:20:58.927Z,100929.72
2023-04-09T19:26:00.954Z,100930.91
2023-04-09T19:31:06.400Z,100935.31
2023-04-09T19:36:08.270Z,100936.88
2023-04-09T19:41:10.482Z,100940.59
2023-04-09T19:46:13.159Z,100946.72
2023-04-09T19:51:21.951Z,100949.47
2023-04-09T19:56:23.558Z,100948.06
2023-04-09T20:01:25.194Z,100946.19
2023-04-09T20:06:27.159Z,100954.00
2023-04-09T20:11:28.727Z,100946.38
2023-04-09T20:16:30.442Z,100955.94
2023-04-09T20:21:32.006Z,100960.22
2023-04-09T20:26:33.504Z,100964.53
2023-04-09T20:31:36.110Z,100960.13
2023-04-09T20:36:37.983Z,100955.41
2023-04-09T20:41:39.493Z,100953.28
2023-04-09T20:46:41.014Z,100952.63
2023-04-09T20:51:42.596Z,100944.69
2023-04-09T20:56:44.619Z,100936.59
2023-04-09T21:01:46.191Z,100937.56
2023-04-09T21:06:47.843Z,100921.38
2023-04-09T21:11:49.455Z,100923.88
2023-04-09T21:16:52.345Z,100915.78
2023-04-09T21:21:54.341Z,100927.19
2023-04-09T21:26:56.077Z,100923.88
2023-04-09T21:31:57.594Z,100924.09
2023-04-09T21:36:59.189Z,100925.47
2023-04-09T21:42:00.728Z,100924.44
2023-04-09T21:47:07.430Z,100923.81
2023-04-09T21:52:14.525Z,100914.25
2023-04-09T21:57:16.470Z,100913.00
2023-04-09T22:02:18.534Z,100909.41
2023-04-09T22:07:20.382Z,100907.94
2023-04-09T22:12:21.895Z,100908.13
2023-04-09T22:17:23.462Z,100914.91
2023-04-09T22:22:25.001Z,100903.53
2023-04-09T22:27:26.795Z,100907.56
2023-04-09T22:32:28.845Z,100907.41
2023-04-09T22:37:30.789Z,100910.53
2023-04-09T22:42:33.049Z,100909.31
2023-04-09T22:47:34.962Z,100915.63
2023-04-09T22:52:36.602Z,100918.34
2023-04-09T22:57:38.445Z,100917.50
2023-04-09T23:02:40.209Z,100918.50
2023-04-09T23:07:42.745Z,100907.84
2023-04-09T23:12:44.321Z,100910.91
2023-04-09T23:17:45.893Z,100915.78
2023-04-09T23:22:48.018Z,100902.88
2023-04-09T23:27:49.703Z,100905.41
2023-04-09T23:32:57.032Z,100912.06
2023-04-09T23:37:59.196Z,100904.94
2023-04-09T23:43:00.748Z,100897.03
2023-04-09T23:48:03.636Z,100893.28
2023-04-09T23:53:05.446Z,100891.06
2023-04-09T23:58:07.678Z,100882.47
